createdAt,value
2018-06-02T00:02:57.028Z,3.30
2018-06-02T00:07:50.311Z,3.50
2018-06-02T00:12:44.370Z,3.67
2018-06-02T00:17:37.661Z,3.73
2018-06-02T00:22:30.949Z,4.00
2018-06-02T00:27:24.256Z,3.17
2018-06-02T00:32:18.309Z,3.43
2018-06-02T00:37:11.604Z,3.03
2018-06-02T00:42:04.900Z,3.30
2018-06-02T00:46:58.195Z,3.07
2018-06-02T00:51:52.250Z,3.27
2018-06-02T00:56:45.539Z,2.93
2018-06-02T01:01:38.900Z,3.20
2018-06-02T01:06:32.171Z,3.47
2018-06-02T01:11:25.464Z,3.73
2018-06-02T01:16:18.774Z,3.43
2018-06-02T01:21:12.899Z,3.17
2018-06-02T01:26:06.200Z,3.47
2018-06-02T01:30:59.491Z,3.00
2018-06-02T01:35:52.831Z,3.17
2018-06-02T01:40:46.122Z,3.13
2018-06-02T01:45:39.420Z,3.30
2018-06-02T01:50:32.723Z,3.50
2018-06-02T01:55:26.769Z,3.13
2018-06-02T02:00:20.053Z,3.40
2018-06-02T02:05:13.348Z,3.90
2018-06-02T02:10:06.633Z,3.83
2018-06-02T02:14:59.924Z,3.13
2018-06-02T02:19:53.970Z,3.70
2018-06-02T02:24:47.279Z,3.60
2018-06-02T02:29:40.544Z,3.63
2018-06-02T02:34:33.835Z,3.40
2018-06-02T02:39:27.127Z,3.40
2018-06-02T02:44:21.181Z,3.10
2018-06-02T02:49:14.477Z,3.50
2018-06-02T02:54:07.798Z,3.40
2018-06-02T02:59:01.097Z,2.90
2018-06-02T03:03:54.399Z,3.07
2018-06-02T03:08:47.688Z,3.43
2018-06-02T03:13:40.994Z,3.40
2018-06-02T03:18:35.042Z,3.53
2018-06-02T03:23:28.331Z,3.63
2018-06-02T03:28:21.643Z,3.33
2018-06-02T03:33:14.962Z,3.57
2018-06-02T03:38:08.255Z,3.27
2018-06-02T03:43:01.547Z,3.10
2018-06-02T03:47:54.846Z,3.30
2018-06-02T03:52:48.896Z,3.30
2018-06-02T03:57:42.190Z,3.10
2018-06-02T04:02:35.486Z,3.13
2018-06-02T04:07:29.556Z,2.97
2018-06-02T04:12:22.838Z,3.30
2018-06-02T04:17:16.122Z,3.00
2018-06-02T04:22:09.422Z,3.33
2018-06-02T04:27:02.735Z,3.53
2018-06-02T04:31:56.024Z,3.23
2018-06-02T04:36:49.318Z,3.07
2018-06-02T04:41:42.624Z,2.80
2018-06-02T04:46:36.683Z,2.57
2018-06-02T04:51:29.954Z,2.93
2018-06-02T04:56:23.242Z,2.67
2018-06-02T05:01:16.530Z,2.57
2018-06-02T05:06:09.832Z,2.23
2018-06-02T05:11:03.894Z,3.00
2018-06-02T05:15:57.191Z,3.30
2018-06-02T05:20:51.251Z,3.30
2018-06-02T05:25:44.548Z,3.07
2018-06-02T05:30:37.834Z,3.20
2018-06-02T05:35:31.891Z,4.07
2018-06-02T05:40:25.228Z,3.67
2018-06-02T05:45:18.476Z,3.20
2018-06-02T05:50:11.759Z,3.43
2018-06-02T05:55:07.501Z,3.80
2018-06-02T06:00:01.574Z,3.03
2018-06-02T06:04:54.849Z,2.97
2018-06-02T06:53:11.884Z,3.20
2018-06-02T06:58:05.195Z,3.40
2018-06-02T07:02:58.479Z,3.63
2018-06-02T07:07:51.810Z,3.93
2018-06-02T07:12:45.106Z,3.30
2018-06-02T07:17:39.159Z,2.83
2018-06-02T07:22:32.445Z,3.23
2018-06-02T07:27:25.738Z,3.90
2018-06-02T07:32:19.035Z,3.13
2018-06-02T07:37:13.111Z,3.87
2018-06-02T07:42:06.403Z,3.10
2018-06-02T07:46:59.708Z,3.63
2018-06-02T07:51:52.994Z,3.50
2018-06-02T07:56:47.062Z,2.77
2018-06-02T08:01:41.118Z,3.10
2018-06-02T08:06:34.408Z,2.80
2018-06-02T08:11:27.685Z,3.05
2018-06-02T08:16:20.976Z,2.53
2018-06-02T08:21:15.138Z,3.25
2018-06-02T08:26:08.433Z,2.72
2018-06-02T08:31:01.723Z,2.92
2018-06-02T08:35:55.786Z,2.45
2018-06-02T08:40:49.083Z,2.97
2018-06-02T08:45:42.390Z,3.08
2018-06-02T08:50:35.692Z,3.05
2018-06-02T08:55:28.987Z,2.90
2018-06-02T09:00:22.295Z,3.35
2018-06-02T09:05:15.574Z,3.05
2018-06-02T09:10:09.636Z,2.55
2018-06-02T09:15:02.948Z,2.85
2018-06-02T09:19:57.082Z,3.80
2018-06-02T09:24:50.380Z,3.85
2018-06-02T09:29:43.696Z,2.92
2018-06-02T09:34:37.763Z,2.60
2018-06-02T09:39:31.046Z,2.20
2018-06-02T09:44:24.340Z,2.12
2018-06-02T09:49:18.414Z,2.40
2018-06-02T09:54:11.722Z,2.30
2018-06-02T09:59:05.784Z,1.83
2018-06-02T10:03:59.080Z,1.83
2018-06-02T10:08:52.390Z,1.80
2018-06-02T10:13:45.703Z,1.92
2018-06-02T10:18:38.995Z,1.67
2018-06-02T10:23:32.295Z,1.80
2018-06-02T10:28:26.375Z,1.75
2018-06-02T10:33:19.657Z,1.60
2018-06-02T10:38:12.956Z,1.62
2018-06-02T10:43:07.040Z,1.40
2018-06-02T10:48:01.104Z,1.62
2018-06-02T10:52:54.435Z,1.73
2018-06-02T10:57:47.725Z,1.52
2018-06-02T11:02:41.797Z,1.50
2018-06-02T11:07:35.868Z,1.58
2018-06-02T11:12:29.168Z,1.30
2018-06-02T11:17:23.230Z,1.25
2018-06-02T11:22:16.517Z,1.20
2018-06-02T11:27:09.834Z,1.10
2018-06-02T11:32:03.153Z,1.10
2018-06-02T11:36:56.451Z,1.00
2018-06-02T11:41:49.765Z,1.12
2018-06-02T11:46:43.038Z,1.12
2018-06-02T11:51:36.347Z,1.20
2018-06-02T11:56:29.650Z,1.20
2018-06-02T12:01:22.960Z,1.30
2018-06-02T12:06:17.035Z,1.42
2018-06-02T12:11:10.406Z,1.20
2018-06-02T12:16:04.498Z,1.27
2018-06-02T12:20:57.794Z,1.40
2018-06-02T12:25:51.856Z,1.40
2018-06-02T12:30:45.153Z,1.60
2018-06-02T12:35:38.614Z,1.35
2018-06-02T12:40:31.921Z,1.40
2018-06-02T12:45:25.992Z,5.12
2018-06-02T12:50:19.309Z,2.35
2018-06-02T12:55:13.362Z,1.50
2018-06-02T13:00:06.673Z,3.12
2018-06-02T13:05:00.722Z,1.65
2018-06-02T13:09:54.019Z,1.90
2018-06-02T13:14:47.318Z,2.08
2018-06-02T13:19:40.636Z,1.65
2018-06-02T13:24:34.694Z,1.80
2018-06-02T13:29:28.751Z,1.60
2018-06-02T13:34:22.103Z,1.70
2018-06-02T13:39:15.404Z,2.03
2018-06-02T13:44:08.710Z,1.50
2018-06-02T13:49:02.782Z,1.42
2018-06-02T13:53:56.080Z,1.58
2018-06-02T13:58:50.155Z,1.52
2018-06-02T14:03:43.451Z,1.90
2018-06-02T14:08:36.747Z,1.52
2018-06-02T14:13:30.827Z,1.70
2018-06-02T14:18:24.875Z,1.83
2018-06-02T14:23:18.176Z,1.75
2018-06-02T14:28:13.303Z,1.98
2018-06-02T14:33:06.611Z,1.98
2018-06-02T14:38:00.724Z,1.42
2018-06-02T14:42:55.724Z,1.55
2018-06-02T14:47:49.786Z,1.80
2018-06-02T14:52:43.078Z,1.60
2018-06-02T14:57:37.135Z,1.80
2018-06-02T15:02:31.641Z,1.40
2018-06-02T15:07:24.938Z,1.60
2018-06-02T15:12:18.230Z,1.70
2018-06-02T15:17:12.296Z,1.50
2018-06-02T15:22:05.582Z,1.80
2018-06-02T15:26:58.893Z,1.77
2018-06-02T15:31:52.932Z,1.50
2018-06-02T15:36:46.226Z,1.60
2018-06-02T15:41:39.519Z,1.67
2018-06-02T15:46:32.803Z,1.60
2018-06-02T15:51:26.091Z,1.58
2018-06-02T15:56:20.155Z,1.60
2018-06-02T16:01:13.452Z,1.55
2018-06-02T16:06:07.507Z,1.55
2018-06-02T16:11:00.808Z,1.73
2018-06-02T16:15:54.099Z,1.60
2018-06-02T16:20:48.160Z,1.80
2018-06-02T16:25:41.475Z,1.50
2018-06-02T16:30:35.545Z,1.67
2018-06-02T16:35:28.822Z,1.60
2018-06-02T16:40:22.127Z,1.75
2018-06-02T16:45:16.192Z,1.42
2018-06-02T16:50:09.482Z,1.80
2018-06-02T16:55:02.786Z,1.67
2018-06-02T16:59:56.098Z,1.50
2018-06-02T17:04:49.415Z,1.80
2018-06-02T17:09:42.727Z,1.75
2018-06-02T17:14:36.029Z,1.92
2018-06-02T17:19:29.315Z,1.90
2018-06-02T17:24:22.611Z,1.70
2018-06-02T17:29:15.898Z,1.70
2018-06-02T17:34:09.966Z,1.70
2018-06-02T17:39:03.276Z,1.80
2018-06-02T17:43:56.572Z,1.75
2018-06-02T17:48:49.885Z,1.77
2018-06-02T17:53:43.174Z,1.80
2018-06-02T17:58:36.467Z,1.80
2018-06-02T18:03:29.794Z,1.73
2018-06-02T18:08:23.102Z,1.73
2018-06-02T18:13:16.408Z,1.98
2018-06-02T18:18:09.718Z,1.90
2018-06-02T18:23:03.034Z,1.70
2018-06-02T18:27:56.339Z,1.80
2018-06-02T18:32:49.632Z,1.85
2018-06-02T18:37:43.698Z,1.70
2018-06-02T18:42:37.014Z,1.58
2018-06-02T18:47:30.316Z,1.65
2018-06-02T18:52:23.615Z,1.77
2018-06-02T18:57:16.910Z,2.25
2018-06-02T19:02:10.201Z,2.03
2018-06-02T19:07:03.574Z,2.17
2018-06-02T19:11:56.868Z,2.42
2018-06-02T19:16:50.920Z,2.85
2018-06-02T19:21:44.243Z,3.17
2018-06-02T19:26:38.313Z,3.40
2018-06-02T19:31:31.622Z,3.15
2018-06-02T19:36:25.686Z,3.03
2018-06-02T19:41:18.990Z,3.40
2018-06-02T19:46:13.054Z,3.30
2018-06-02T19:51:06.347Z,3.95
2018-06-02T19:56:00.423Z,4.25
2018-06-02T20:00:53.721Z,3.40
2018-06-02T20:05:47.797Z,3.10
2018-06-02T20:10:41.087Z,2.67
2018-06-02T20:15:34.381Z,2.60
2018-06-02T20:20:28.427Z,2.63
2018-06-02T20:25:21.731Z,2.77
2018-06-02T20:30:15.062Z,3.07
2018-06-02T20:35:08.355Z,3.33
2018-06-02T20:40:01.880Z,3.10
2018-06-02T20:44:55.946Z,3.10
2018-06-02T20:49:49.252Z,3.17
2018-06-02T20:54:42.542Z,3.37
2018-06-02T20:59:36.601Z,2.27
2018-06-02T21:04:29.889Z,2.60
2018-06-02T21:09:23.192Z,2.43
2018-06-02T21:14:17.245Z,2.73
2018-06-02T21:19:10.516Z,2.47
2018-06-02T21:24:03.828Z,3.10
2018-06-02T21:28:57.878Z,2.90
2018-06-02T21:33:51.224Z,3.50
2018-06-02T21:38:45.267Z,3.57
2018-06-02T21:43:38.578Z,4.23
2018-06-02T21:48:32.645Z,3.83
2018-06-02T21:53:25.934Z,4.33
2018-06-02T21:58:19.220Z,3.60
2018-06-02T22:03:13.271Z,3.77
2018-06-02T22:08:07.331Z,3.40
2018-06-02T22:13:00.626Z,3.70
2018-06-02T22:17:54.686Z,3.43
2018-06-02T22:22:48.755Z,3.63
2018-06-02T22:27:42.027Z,3.53
2018-06-02T22:32:35.324Z,3.43
2018-06-02T22:37:29.403Z,4.17
2018-06-02T22:42:22.716Z,4.20
2018-06-02T22:47:16.776Z,3.93
2018-06-02T22:52:10.076Z,4.10
2018-06-02T22:57:04.145Z,3.63
2018-06-02T23:01:57.429Z,3.20
2018-06-02T23:06:50.749Z,4.10
2018-06-02T23:11:44.024Z,3.77
2018-06-02T23:16:37.311Z,4.53
2018-06-02T23:21:31.377Z,3.80
2018-06-02T23:26:25.441Z,3.17
2018-06-02T23:31:18.742Z,3.77
2018-06-02T23:36:12.792Z,3.17
2018-06-02T23:41:06.091Z,3.80
2018-06-02T23:45:59.402Z,3.17
2018-06-02T23:50:53.455Z,3.30
2018-06-02T23:55:46.768Z,3.60
